Time;durP1;ratioP1;P1;durP2;ratioP2;P2;SDS_P1;SDS_P2;PMS_P1;PMS_P2;Temp;Humidity;BMP_temperature;BMP_pressure;BME280_temperature;BME280_humidity;BME280_pressure;Samples;Min_cycle;Max_cycle;Signal;HPM_P1;HPM_P2
2022/09/02 00:01:47;;;;;;;4.80;1.15;;;;;;;16.37;91.95;100725.06;5012327;28;20037;-66
2022/09/02 00:04:19;;;;;;;1.73;0.60;;;;;;;16.35;92.14;100718.34;5027339;28;20373;-66
2022/09/02 00:06:46;;;;;;;3.00;0.80;;;;;;;16.26;92.29;100715.78;5028069;28;20039;-67
2022/09/02 00:09:15;;;;;;;3.60;1.00;;;;;;;16.20;92.49;100718.28;5030186;28;20381;-66
2022/09/02 00:11:42;;;;;;;2.35;0.60;;;;;;;16.23;91.98;100720.56;5042282;28;20025;-67
2022/09/02 00:14:13;;;;;;;3.10;0.70;;;;;;;16.19;91.75;100722.72;5028215;28;20035;-66
2022/09/02 00:16:40;;;;;;;2.65;0.68;;;;;;;16.08;92.12;100714.41;5027986;28;20420;-67
2022/09/02 00:19:06;;;;;;;0.82;0.60;;;;;;;16.07;92.41;100718.06;5009187;28;20120;-66
2022/09/02 00:21:33;;;;;;;2.63;0.60;;;;;;;15.99;93.06;100716.31;5027153;28;20461;-67
2022/09/02 00:24:00;;;;;;;1.73;0.70;;;;;;;15.98;92.67;100714.66;5009900;28;20033;-66
2022/09/02 00:26:26;;;;;;;1.45;0.60;;;;;;;15.95;92.29;100709.75;5032050;28;20032;-66
2022/09/02 00:28:52;;;;;;;1.73;0.50;;;;;;;15.93;91.78;100711.75;5032817;28;20034;-66
2022/09/02 00:31:18;;;;;;;2.80;0.70;;;;;;;15.88;92.21;100706.19;5027958;28;20496;-65
2022/09/02 00:33:44;;;;;;;0.90;0.40;;;;;;;15.86;91.99;100716.03;5025686;28;20036;-67
2022/09/02 00:36:10;;;;;;;2.10;0.60;;;;;;;15.86;91.67;100714.22;5033495;28;20017;-67
2022/09/02 00:38:38;;;;;;;3.03;0.50;;;;;;;15.86;91.68;100713.41;5025375;28;20041;-66
2022/09/02 00:41:07;;;;;;;1.45;0.50;;;;;;;15.84;91.36;100718.84;5006930;28;20021;-66
2022/09/02 00:43:41;;;;;;;2.35;0.40;;;;;;;15.80;92.08;100717.56;5026185;28;20508;-66
2022/09/02 00:46:06;;;;;;;1.80;0.43;;;;;;;15.79;91.54;100709.84;5026205;28;20045;-66
2022/09/02 00:48:33;;;;;;;0.93;0.47;;;;;;;15.78;91.92;100710.81;5027589;28;20037;-66
2022/09/02 00:51:02;;;;;;;0.77;0.40;;;;;;;15.82;91.76;100714.75;5026772;28;20029;-66
2022/09/02 00:53:28;;;;;;;1.77;0.40;;;;;;;15.78;91.86;100713.47;5032585;28;20107;-66
2022/09/02 00:55:53;;;;;;;1.15;0.30;;;;;;;15.75;91.92;100703.28;5030038;28;20049;-66
2022/09/02 00:58:24;;;;;;;1.77;0.55;;;;;;;15.75;92.62;100714.63;5035185;28;20119;-66
2022/09/02 01:00:55;;;;;;;1.92;0.73;;;;;;;15.77;92.42;100710.00;5027622;28;20037;-66
2022/09/02 01:03:23;;;;;;;5.00;0.60;;;;;;;15.76;92.47;100710.19;5012244;28;20375;-66
2022/09/02 01:05:51;;;;;;;1.45;0.65;;;;;;;15.72;92.33;100708.88;5026936;28;20049;-66
2022/09/02 01:08:31;;;;;;;1.98;0.50;;;;;;;15.70;92.83;100713.50;5009353;28;20037;-67
2022/09/02 01:10:57;;;;;;;1.02;0.50;;;;;;;15.71;93.11;100702.00;5017773;28;20396;-66
2022/09/02 01:13:29;;;;;;;2.42;0.40;;;;;;;15.71;93.19;100696.75;5010077;28;20029;-66
2022/09/02 01:16:01;;;;;;;2.70;0.68;;;;;;;15.68;93.52;100697.09;5026529;28;20445;-66
2022/09/02 01:18:29;;;;;;;1.95;0.55;;;;;;;15.64;93.71;100695.78;5035154;28;20163;-67
2022/09/02 01:20:57;;;;;;;0.75;0.30;;;;;;;15.77;88.43;100693.44;5042884;28;20074;-65
2022/09/02 01:23:22;;;;;;;1.92;0.40;;;;;;;16.26;85.79;100702.63;5016752;28;20025;-66
2022/09/02 01:25:49;;;;;;;1.98;0.38;;;;;;;16.33;85.71;100701.94;5026419;28;20388;-66
2022/09/02 01:28:18;;;;;;;2.42;0.60;;;;;;;16.17;87.27;100693.16;5037040;28;20134;-68
2022/09/02 01:30:50;;;;;;;1.10;0.40;;;;;;;16.17;86.93;100698.44;5029302;28;20397;-66
2022/09/02 01:33:17;;;;;;;1.88;0.50;;;;;;;16.21;86.95;100699.72;5026893;28;20151;-65
2022/09/02 01:35:44;;;;;;;2.72;0.55;;;;;;;16.29;85.25;100701.47;5036792;28;20578;-66
2022/09/02 01:38:10;;;;;;;1.30;0.50;;;;;;;16.53;82.97;100697.84;5031833;28;20033;-66
2022/09/02 01:40:36;;;;;;;1.25;0.40;;;;;;;16.60;81.63;100696.94;5029288;28;20079;-67
2022/09/02 01:43:09;;;;;;;0.50;0.22;;;;;;;16.79;80.09;100698.28;5041633;28;20776;-67
2022/09/02 01:45:37;;;;;;;0.95;0.30;;;;;;;16.81;80.26;100695.47;5029925;28;20499;-66
2022/09/02 01:48:04;;;;;;;2.78;0.40;;;;;;;16.78;81.09;100688.75;5029186;28;20056;-67
2022/09/02 01:50:30;;;;;;;0.80;0.30;;;;;;;16.71;81.36;100690.44;5030518;28;20041;-66
2022/09/02 01:52:56;;;;;;;0.85;0.30;;;;;;;16.70;81.25;100688.00;5013078;28;20062;-66
2022/09/02 01:55:22;;;;;;;2.10;0.30;;;;;;;16.57;81.89;100680.69;5033299;28;20053;-66
2022/09/02 01:57:47;;;;;;;1.13;0.30;;;;;;;16.49;82.14;100681.59;5029486;28;20033;-66
2022/09/02 02:00:15;;;;;;;0.85;0.32;;;;;;;16.43;82.44;100681.47;5029631;28;20037;-66
2022/09/02 02:02:40;;;;;;;0.65;0.30;;;;;;;16.42;82.93;100683.28;5029693;28;20485;-66
2022/09/02 02:05:07;;;;;;;3.05;0.35;;;;;;;16.58;80.69;100688.41;5033445;28;20140;-68
2022/09/02 02:07:32;;;;;;;1.27;0.30;;;;;;;16.84;78.82;100680.13;5029521;28;20094;-66
2022/09/02 02:09:57;;;;;;;2.65;0.50;;;;;;;16.88;78.35;100684.03;5031809;28;20038;-66
2022/09/02 02:12:23;;;;;;;2.78;0.38;;;;;;;16.80;79.57;100683.31;5029485;28;20099;-66
2022/09/02 02:14:49;;;;;;;0.55;0.25;;;;;;;16.68;80.25;100676.84;5034788;28;20717;-66
2022/09/02 02:17:14;;;;;;;0.85;0.40;;;;;;;16.54;80.89;100688.97;5029623;28;20533;-66
2022/09/02 02:19:40;;;;;;;2.80;0.30;;;;;;;16.44;81.15;100678.69;5029791;28;20017;-67
2022/09/02 02:22:06;;;;;;;0.70;0.30;;;;;;;16.40;81.31;100684.47;5036895;28;20108;-67
2022/09/02 02:24:31;;;;;;;1.50;0.30;;;;;;;16.35;82.03;100687.63;5037400;28;20077;-67
2022/09/02 02:26:57;;;;;;;1.10;0.40;;;;;;;16.32;82.23;100684.53;5028564;28;20033;-66
2022/09/02 02:29:22;;;;;;;0.98;0.25;;;;;;;16.40;81.25;100687.91;5044513;28;20024;-66
2022/09/02 02:31:48;;;;;;;0.73;0.28;;;;;;;16.35;81.52;100685.00;5048183;28;20047;-66
2022/09/02 02:34:14;;;;;;;1.98;0.30;;;;;;;16.29;82.26;100684.88;5022769;28;20152;-67
2022/09/02 02:36:40;;;;;;;2.25;0.30;;;;;;;16.24;82.24;100688.84;5031306;28;20227;-65
2022/09/02 02:39:08;;;;;;;0.85;0.30;;;;;;;16.17;82.95;100690.53;5027968;28;20041;-66
2022/09/02 02:41:34;;;;;;;0.60;0.30;;;;;;;16.14;83.62;100680.38;5240653;22;20509;-86
2022/09/02 02:44:00;;;;;;;1.60;0.40;;;;;;;16.13;84.00;100681.38;5007063;28;20520;-85
2022/09/02 02:46:25;;;;;;;3.80;0.30;;;;;;;16.11;83.79;100680.72;5009368;28;20040;-85
2022/09/02 02:48:51;;;;;;;2.88;0.30;;;;;;;16.10;84.28;100681.72;5009629;28;20144;-89
2022/09/02 02:51:16;;;;;;;0.70;0.30;;;;;;;16.12;84.78;100674.47;5008271;28;20018;-85
2022/09/02 02:53:42;;;;;;;0.80;0.30;;;;;;;16.15;84.31;100671.50;5007856;28;20454;-85
2022/09/02 02:56:08;;;;;;;4.68;0.45;;;;;;;16.09;84.88;100669.56;5009452;28;20026;-88
2022/09/02 02:58:34;;;;;;;0.93;0.35;;;;;;;16.09;85.50;100672.19;5009741;28;20030;-87
2022/09/02 03:01:00;;;;;;;0.80;0.30;;;;;;;16.10;85.74;100675.63;5008063;28;20034;-86
2022/09/02 03:03:26;;;;;;;1.67;0.30;;;;;;;16.09;85.36;100672.19;5007952;28;20096;-87
2022/09/02 03:05:53;;;;;;;1.10;0.35;;;;;;;16.04;85.21;100669.31;5009189;28;20030;-89
2022/09/02 03:08:20;;;;;;;3.67;0.40;;;;;;;16.03;84.92;100674.72;5009072;28;20033;-85
2022/09/02 03:10:47;;;;;;;0.88;0.22;;;;;;;16.38;80.64;100673.31;5007547;28;20338;-87
2022/09/02 03:13:14;;;;;;;1.08;0.30;;;;;;;16.78;77.64;100678.22;5007867;28;20029;-85
2022/09/02 03:15:40;;;;;;;2.55;0.68;;;;;;;16.82;78.46;100683.94;5024435;28;20375;-87
2022/09/02 03:18:06;;;;;;;1.27;0.30;;;;;;;16.64;78.96;100686.91;5009121;28;20040;-87
2022/09/02 03:20:32;;;;;;;2.00;0.30;;;;;;;16.50;80.61;100682.41;5009417;28;20021;-85
2022/09/02 03:22:58;;;;;;;0.60;0.30;;;;;;;16.35;81.92;100677.09;5009241;28;20370;-84
2022/09/02 03:25:26;;;;;;;1.15;0.30;;;;;;;16.22;82.29;100680.31;5009643;28;20541;-87
2022/09/02 03:27:51;;;;;;;2.47;0.38;;;;;;;16.13;83.45;100676.09;5008327;28;20045;-88
2022/09/02 03:30:23;;;;;;;1.35;0.40;;;;;;;16.05;83.22;100672.75;5009049;28;20068;-87
2022/09/02 03:32:49;;;;;;;1.23;0.40;;;;;;;15.97;83.19;100672.78;5007948;28;20030;-88
2022/09/02 03:35:39;;;;;;;2.65;0.50;;;;;;;15.90;83.48;100673.50;5023696;28;20025;-87
2022/09/02 03:38:05;;;;;;;0.95;0.30;;;;;;;15.88;84.25;100677.28;5008796;28;20030;-86
2022/09/02 03:40:30;;;;;;;4.38;0.40;;;;;;;15.82;84.74;100670.09;5023958;28;20029;-87
2022/09/02 03:42:56;;;;;;;3.50;0.30;;;;;;;15.73;85.38;100673.75;5008102;28;20077;-86
2022/09/02 03:45:21;;;;;;;1.00;0.30;;;;;;;15.71;85.10;100675.72;5009388;28;20473;-87
2022/09/02 03:47:52;;;;;;;0.63;0.30;;;;;;;15.72;85.01;100672.94;5007245;28;20034;-84
2022/09/02 03:50:28;;;;;;;0.73;0.30;;;;;;;15.69;85.99;100675.09;5006813;28;20042;-86
2022/09/02 03:52:54;;;;;;;1.90;0.35;;;;;;;15.63;86.26;100667.88;5023557;28;20038;-84
2022/09/02 03:55:20;;;;;;;0.93;0.30;;;;;;;15.56;86.42;100657.25;5024602;28;20034;-85
2022/09/02 03:57:46;;;;;;;3.80;0.47;;;;;;;15.50;86.58;100663.19;5008596;28;20026;-88
2022/09/02 04:00:14;;;;;;;8.38;0.50;;;;;;;15.44;87.22;100661.25;5007141;28;20080;-86
2022/09/02 04:02:40;;;;;;;1.13;0.30;;;;;;;15.34;87.56;100658.81;5008167;28;20034;-87
2022/09/02 04:05:07;;;;;;;1.73;0.35;;;;;;;15.28;87.45;100662.13;5008325;28;20033;-85
2022/09/02 04:07:32;;;;;;;1.27;0.55;;;;;;;15.20;88.30;100659.53;5008330;28;20165;-86
2022/09/02 04:10:20;;;;;;;4.20;0.30;;;;;;;15.19;89.16;100663.13;5008470;28;20061;-85
2022/09/02 04:12:46;;;;;;;3.15;0.40;;;;;;;15.13;88.34;100663.81;5008180;28;20029;-87
2022/09/02 04:15:12;;;;;;;3.42;0.70;;;;;;;15.07;88.17;100667.94;5006779;28;20401;-89
2022/09/02 04:17:40;;;;;;;4.40;0.38;;;;;;;15.07;88.07;100656.63;5008216;28;20053;-84
2022/09/02 04:20:07;;;;;;;0.68;0.30;;;;;;;15.07;88.13;100659.25;5007956;28;20029;-87
2022/09/02 04:22:33;;;;;;;0.60;0.30;;;;;;;15.12;87.83;100659.56;5008294;28;20307;-85
2022/09/02 04:24:59;;;;;;;1.95;0.75;;;;;;;15.14;88.46;100660.19;5006649;28;20616;-85
2022/09/02 04:27:24;;;;;;;1.23;0.40;;;;;;;15.11;89.55;100657.94;5007945;28;20473;-86
2022/09/02 04:29:50;;;;;;;1.30;0.40;;;;;;;15.11;89.45;100656.13;5006321;28;20060;-84
2022/09/02 04:32:16;;;;;;;1.00;0.52;;;;;;;15.09;89.47;100652.03;5008136;28;20369;-85
2022/09/02 04:34:41;;;;;;;1.50;0.32;;;;;;;15.06;90.09;100655.81;5008150;28;20049;-86
2022/09/02 04:37:07;;;;;;;2.05;0.40;;;;;;;15.02;90.21;100654.50;5022791;28;20033;-85
2022/09/02 04:39:33;;;;;;;1.15;0.32;;;;;;;15.03;90.68;100657.97;5022957;28;20065;-83
2022/09/02 04:41:58;;;;;;;0.80;0.40;;;;;;;15.05;90.92;100653.38;5006234;28;20108;-86
2022/09/02 04:44:24;;;;;;;2.67;0.40;;;;;;;15.00;90.48;100661.75;5006412;28;20152;-86
2022/09/02 04:46:50;;;;;;;2.45;0.40;;;;;;;14.96;90.86;100664.88;5007735;28;20392;-85
2022/09/02 04:49:16;;;;;;;1.40;0.30;;;;;;;14.97;90.45;100661.25;5006318;28;20515;-90
2022/09/02 04:51:42;;;;;;;3.33;0.40;;;;;;;14.95;91.21;100661.41;5008145;28;20034;-86
2022/09/02 04:54:07;;;;;;;2.25;0.40;;;;;;;14.90;91.58;100663.72;5006390;28;20083;-83
2022/09/02 04:56:33;;;;;;;2.65;0.30;;;;;;;14.86;91.50;100673.72;5007806;28;20037;-85
2022/09/02 04:58:58;;;;;;;2.75;0.35;;;;;;;14.88;91.71;100673.56;5007996;28;20120;-87
2022/09/02 05:01:27;;;;;;;3.03;0.40;;;;;;;14.90;91.65;100661.09;5007218;28;20032;-87
2022/09/02 05:03:53;;;;;;;0.80;0.40;;;;;;;15.00;91.22;100658.28;5010272;28;20171;-85
2022/09/02 05:06:29;;;;;;;1.70;0.43;;;;;;;15.01;91.29;100657.31;5011803;28;20041;-88
2022/09/02 05:08:56;;;;;;;1.58;0.35;;;;;;;15.06;91.28;100652.38;5010337;28;20030;-88
2022/09/02 05:11:27;;;;;;;3.50;0.50;;;;;;;15.11;91.17;100655.31;5011554;28;20113;-85
2022/09/02 05:13:54;;;;;;;0.90;0.30;;;;;;;15.20;90.85;100656.91;5010092;28;20061;-85
2022/09/02 05:16:25;;;;;;;2.22;0.38;;;;;;;15.26;90.79;100662.28;5011386;28;20037;-89
2022/09/02 05:18:53;;;;;;;2.20;0.30;;;;;;;15.33;90.63;100656.38;5026229;28;20037;-84
2022/09/02 05:21:19;;;;;;;1.98;0.45;;;;;;;15.44;90.17;100662.06;5026322;28;20037;-85
2022/09/02 05:23:44;;;;;;;3.03;0.30;;;;;;;15.58;90.30;100658.75;5011384;28;20057;-84
2022/09/02 05:26:12;;;;;;;4.80;0.38;;;;;;;15.69;88.67;100657.50;5011525;28;20058;-86
2022/09/02 05:28:39;;;;;;;4.60;0.47;;;;;;;15.82;88.11;100664.84;5009777;28;20021;-88
2022/09/02 05:31:13;;;;;;;1.02;0.28;;;;;;;15.95;88.45;100665.09;5009731;28;20072;-86
2022/09/02 05:33:41;;;;;;;0.88;0.30;;;;;;;16.03;87.70;100674.72;5010162;28;20041;-89
2022/09/02 05:36:08;;;;;;;2.35;0.50;;;;;;;16.14;87.89;100672.50;5009483;28;20030;-85
2022/09/02 05:38:34;;;;;;;0.75;0.30;;;;;;;16.22;88.07;100674.25;5011020;28;20038;-86
2022/09/02 05:41:24;;;;;;;3.78;0.40;;;;;;;16.26;87.43;100665.81;5010295;28;20077;-85
2022/09/02 05:43:51;;;;;;;1.15;0.40;;;;;;;16.30;87.38;100668.09;5010720;28;20114;-85
2022/09/02 05:46:20;;;;;;;1.45;0.32;;;;;;;16.27;87.08;100672.72;5010084;28;20061;-90
2022/09/02 05:49:06;;;;;;;1.80;0.40;;;;;;;16.30;86.88;100670.75;5011068;28;20105;-88
2022/09/02 05:52:03;;;;;;;0.68;0.30;;;;;;;16.40;84.84;100672.13;5010146;28;20034;-91
2022/09/02 05:54:31;;;;;;;2.90;0.30;;;;;;;16.56;85.74;100676.41;5012102;28;20063;-87
2022/09/02 05:57:03;;;;;;;1.48;0.40;;;;;;;16.68;85.65;100676.84;5011300;28;20255;-89
2022/09/02 05:59:30;;;;;;;3.65;0.35;;;;;;;16.80;84.45;100678.03;5009717;28;20376;-88
2022/09/02 06:01:57;;;;;;;2.90;0.40;;;;;;;16.90;84.79;100676.78;5009057;28;20018;-87
2022/09/02 06:04:22;;;;;;;1.77;0.55;;;;;;;16.98;84.07;100669.81;5010625;28;20501;-87
2022/09/02 06:06:49;;;;;;;2.03;0.60;;;;;;;17.07;84.55;100673.97;5009019;28;20030;-87
2022/09/02 06:09:17;;;;;;;1.85;0.38;;;;;;;17.13;84.22;100666.16;5009093;28;20504;-87
2022/09/02 06:11:48;;;;;;;3.10;0.40;;;;;;;17.21;84.02;100666.06;5008908;28;20493;-86
2022/09/02 06:14:15;;;;;;;2.08;0.45;;;;;;;17.34;83.39;100665.44;5009291;28;20553;-87
2022/09/02 06:16:41;;;;;;;4.50;0.50;;;;;;;17.42;82.99;100667.97;5010407;28;20025;-86
2022/09/02 06:19:07;;;;;;;2.92;0.38;;;;;;;17.54;82.24;100669.09;5024546;28;20056;-86
2022/09/02 06:21:33;;;;;;;0.90;0.30;;;;;;;17.66;81.37;100660.75;5025710;28;20097;-85
2022/09/02 06:23:59;;;;;;;2.60;1.10;;;;;;;17.83;79.14;100664.81;5023520;28;20117;-86
2022/09/02 06:26:25;;;;;;;1.80;0.98;;;;;;;17.97;77.91;100660.44;5008594;28;20457;-86
2022/09/02 06:28:50;;;;;;;3.90;0.40;;;;;;;18.10;77.56;100660.59;5006527;28;20060;-86
2022/09/02 06:31:19;;;;;;;4.35;0.60;;;;;;;18.22;77.37;100659.91;5008313;28;20485;-86
2022/09/02 06:34:07;;;;;;;1.58;0.70;;;;;;;18.33;76.47;100660.41;5008416;28;20060;-86
2022/09/02 06:36:32;;;;;;;1.60;0.30;;;;;;;18.48;75.47;100650.56;5009299;28;20473;-86
2022/09/02 06:38:59;;;;;;;3.83;0.30;;;;;;;18.61;75.38;100655.97;5010088;28;20036;-86
2022/09/02 06:41:28;;;;;;;1.67;0.30;;;;;;;18.71;75.10;100658.28;5009827;28;20033;-86
2022/09/02 06:43:59;;;;;;;1.33;0.38;;;;;;;18.76;75.38;100655.88;5009751;28;20050;-86
2022/09/02 06:46:36;;;;;;;1.42;0.30;;;;;;;18.80;74.73;100659.75;4998794;28;20030;-85
2022/09/02 06:49:04;;;;;;;2.00;0.40;;;;;;;18.87;74.65;100653.53;5009627;28;20030;-86
2022/09/02 06:51:39;;;;;;;1.98;0.30;;;;;;;19.00;74.02;100654.59;5009707;28;20037;-86
2022/09/02 06:54:06;;;;;;;;;;;;;;;19.08;72.76;100649.97;5010260;28;20591;-86
2022/09/02 06:56:36;;;;;;;1.05;0.40;;;;;;;19.20;73.96;100647.59;5009963;28;20410;-86
2022/09/02 06:59:03;;;;;;;2.42;0.20;;;;;;;19.29;73.13;100656.97;5008370;28;20077;-84
2022/09/02 07:01:31;;;;;;;1.88;0.70;;;;;;;19.43;71.90;100648.06;5009352;28;20057;-87
2022/09/02 07:06:48;;;;;;;1.58;0.30;;;;;;;19.66;67.92;100645.16;5008482;28;20512;-85
2022/09/02 07:09:18;;;;;;;2.75;0.20;;;;;;;19.79;67.62;100647.00;5007973;28;20052;-84
2022/09/02 07:11:47;;;;;;;1.63;0.20;;;;;;;19.87;68.00;100649.44;5008258;28;20026;-86
2022/09/02 07:14:19;;;;;;;3.63;0.20;;;;;;;19.90;66.88;100643.75;5007957;28;20287;-86
2022/09/02 07:16:49;;;;;;;0.65;0.20;;;;;;;20.03;65.21;100651.72;5004315;28;20508;-85
2022/09/02 07:19:15;;;;;;;3.20;0.20;;;;;;;20.16;64.24;100659.66;5006058;28;20072;-86
2022/09/02 07:21:41;;;;;;;3.03;0.20;;;;;;;20.23;62.50;100648.28;5023408;28;20391;-85
2022/09/02 07:24:19;;;;;;;0.73;0.40;;;;;;;20.26;61.12;100648.69;5006185;28;20050;-86
2022/09/02 07:26:44;;;;;;;1.13;0.30;;;;;;;20.35;61.10;100650.09;5008371;28;20080;-86
2022/09/02 07:29:11;;;;;;;3.35;0.20;;;;;;;20.53;61.20;100654.81;5005703;28;20477;-85
2022/09/02 07:31:39;;;;;;;0.52;0.20;;;;;;;20.67;60.56;100651.13;5003309;28;20030;-85
2022/09/02 07:34:06;;;;;;;0.68;0.20;;;;;;;20.71;60.71;100651.53;5005992;28;20080;-85
2022/09/02 07:36:33;;;;;;;0.40;0.20;;;;;;;20.78;61.04;100661.09;5007209;28;20117;-85
2022/09/02 07:39:00;;;;;;;0.77;0.20;;;;;;;20.90;60.89;100655.97;5007758;28;20064;-86
2022/09/02 07:41:25;;;;;;;3.75;0.50;;;;;;;20.90;60.14;100657.78;5003778;28;20024;-86
2022/09/02 07:43:51;;;;;;;0.52;0.15;;;;;;;20.96;60.37;100649.03;5007310;28;20525;-83
2022/09/02 07:46:17;;;;;;;0.95;0.25;;;;;;;21.06;60.69;100654.72;5006266;28;20033;-83
2022/09/02 07:48:43;;;;;;;1.13;0.30;;;;;;;21.16;59.21;100658.56;5007676;28;20505;-83
2022/09/02 07:51:09;;;;;;;3.33;0.32;;;;;;;21.22;59.64;100659.59;5006617;28;20034;-85
2022/09/02 07:53:35;;;;;;;1.02;0.22;;;;;;;21.26;58.16;100660.78;5006427;28;20037;-85
2022/09/02 07:56:01;;;;;;;0.60;0.10;;;;;;;21.39;57.14;100658.06;5008517;28;20573;-85
2022/09/02 07:58:27;;;;;;;0.60;0.17;;;;;;;21.49;56.14;100658.44;5007969;28;20308;-84
2022/09/02 08:00:55;;;;;;;0.55;0.30;;;;;;;21.63;55.20;100661.03;5006764;28;20219;-86
2022/09/02 08:03:22;;;;;;;0.93;0.32;;;;;;;21.78;54.94;100657.03;4999611;28;20116;-85
2022/09/02 08:05:48;;;;;;;1.85;0.43;;;;;;;21.96;53.69;100655.53;5007026;28;20042;-85
2022/09/02 08:08:15;;;;;;;2.58;0.32;;;;;;;22.13;54.42;100660.13;5023211;28;20133;-85
2022/09/02 08:10:42;;;;;;;1.95;0.20;;;;;;;22.25;55.26;100659.41;5005785;28;20549;-84
2022/09/02 08:13:07;;;;;;;0.95;0.20;;;;;;;22.34;54.36;100663.41;5006203;28;20032;-85
2022/09/02 08:15:44;;;;;;;3.25;0.30;;;;;;;22.38;54.27;100659.31;5006155;28;20030;-86
2022/09/02 08:18:10;;;;;;;2.28;0.25;;;;;;;22.52;53.74;100660.81;5005078;28;20052;-85
2022/09/02 08:20:35;;;;;;;1.40;0.20;;;;;;;22.61;53.31;100654.22;5006161;28;20034;-86
2022/09/02 08:23:05;;;;;;;0.77;0.10;;;;;;;22.63;52.11;100657.47;5004243;28;20033;-85
2022/09/02 08:25:31;;;;;;;0.93;0.20;;;;;;;22.78;51.87;100657.94;5021263;28;20041;-85
2022/09/02 08:27:57;;;;;;;3.10;0.20;;;;;;;22.79;51.54;100651.59;5006018;28;20401;-85
2022/09/02 08:30:23;;;;;;;0.60;0.25;;;;;;;22.78;52.68;100657.94;5007502;28;20041;-84
2022/09/02 08:32:48;;;;;;;0.73;0.20;;;;;;;22.87;51.61;100657.66;5004442;28;20029;-85
2022/09/02 08:35:14;;;;;;;1.00;0.30;;;;;;;22.75;52.07;100654.88;5001844;28;20610;-85
2022/09/02 08:37:39;;;;;;;1.27;0.10;;;;;;;22.67;51.17;100653.34;4997322;28;20200;-85
2022/09/02 08:40:11;;;;;;;0.88;0.20;;;;;;;22.75;51.57;100645.06;5005204;28;20373;-86
2022/09/02 08:42:44;;;;;;;0.50;0.20;;;;;;;22.90;51.42;100649.25;5007167;28;20072;-86
2022/09/02 08:45:34;;;;;;;1.77;0.17;;;;;;;23.00;50.44;100652.19;5007337;28;20056;-85
2022/09/02 08:48:26;;;;;;;1.63;0.20;;;;;;;23.01;50.26;100643.19;5029586;28;20033;-86
2022/09/02 08:51:00;;;;;;;0.98;0.20;;;;;;;22.96;51.02;100653.69;5026140;28;20499;-85
2022/09/02 08:53:36;;;;;;;0.70;0.20;;;;;;;22.77;51.91;100643.00;5006824;28;20099;-85
2022/09/02 08:56:04;;;;;;;1.33;0.20;;;;;;;22.69;51.88;100637.97;5009776;28;20030;-85
2022/09/02 08:58:40;;;;;;;0.95;0.20;;;;;;;22.55;49.84;100639.16;5007000;28;20163;-83
2022/09/02 09:01:29;;;;;;;0.57;0.20;;;;;;;22.47;50.87;100642.06;5009820;28;20042;-83
2022/09/02 09:04:13;;;;;;;2.15;0.40;;;;;;;22.35;48.29;100638.50;5007520;28;20121;-84
2022/09/02 09:06:44;;;;;;;1.65;0.30;;;;;;;22.36;50.78;100640.13;5010390;28;20068;-84
2022/09/02 09:09:22;;;;;;;3.05;0.20;;;;;;;22.33;48.59;100641.38;5024875;28;20579;-85
2022/09/02 09:12:13;;;;;;;1.77;0.20;;;;;;;22.26;50.68;100645.09;5007916;28;20048;-87
2022/09/02 09:14:53;;;;;;;0.90;0.20;;;;;;;22.27;51.81;100638.78;5010112;28;20110;-85
2022/09/02 09:17:29;;;;;;;1.13;0.20;;;;;;;22.14;50.60;100632.56;5008331;28;20049;-85
2022/09/02 09:19:59;;;;;;;1.15;0.22;;;;;;;22.03;51.20;100635.91;5023825;28;20037;-84
2022/09/02 09:22:37;;;;;;;1.42;0.20;;;;;;;22.02;51.45;100633.47;5005085;28;20025;-85
2022/09/02 09:25:14;;;;;;;2.17;0.20;;;;;;;22.03;49.08;100627.13;5005464;28;20084;-84
2022/09/02 09:27:39;;;;;;;1.95;0.20;;;;;;;22.05;50.65;100625.91;5021391;28;20041;-84
2022/09/02 09:30:07;;;;;;;0.60;0.20;;;;;;;22.05;52.02;100625.09;5014580;28;20026;-83
2022/09/02 09:32:37;;;;;;;2.92;0.17;;;;;;;22.16;53.95;100627.84;5026879;28;20674;-84
2022/09/02 09:35:08;;;;;;;1.58;0.40;;;;;;;22.28;52.76;100619.97;5024144;28;20045;-84
2022/09/02 09:37:35;;;;;;;0.73;0.20;;;;;;;22.37;51.41;100617.88;5013870;28;20519;-85
2022/09/02 09:40:22;;;;;;;0.88;0.22;;;;;;;22.27;50.72;100620.19;5015111;28;20041;-85
2022/09/02 09:42:56;;;;;;;0.98;0.30;;;;;;;22.17;52.56;100610.91;5017912;28;20048;-84
2022/09/02 09:45:32;;;;;;;0.50;0.20;;;;;;;22.13;52.79;100609.72;5013024;28;20022;-85
2022/09/02 09:48:15;;;;;;;0.50;0.10;;;;;;;22.05;51.11;100606.50;5002756;28;20480;-84
2022/09/02 09:51:07;;;;;;;2.50;0.28;;;;;;;21.97;51.66;100607.56;5020001;28;20393;-84
2022/09/02 09:53:34;;;;;;;2.47;0.20;;;;;;;22.08;53.99;100600.78;5004137;28;20496;-85
2022/09/02 09:56:01;;;;;;;1.40;0.20;;;;;;;22.12;53.91;100589.50;5007723;28;20100;-85
2022/09/02 09:58:33;;;;;;;2.50;0.20;;;;;;;22.23;54.13;100592.47;5001709;28;20033;-85
2022/09/02 10:01:16;;;;;;;1.20;0.20;;;;;;;22.20;51.64;100585.78;5016190;28;20063;-85
2022/09/02 10:03:51;;;;;;;1.08;0.13;;;;;;;22.09;51.23;100592.59;5000576;28;20045;-85
2022/09/02 10:06:29;;;;;;;1.70;0.20;;;;;;;22.23;51.34;100592.47;5001614;28;20328;-87
2022/09/02 10:08:56;;;;;;;1.27;0.20;;;;;;;22.28;53.27;100592.63;5004358;28;20107;-87
2022/09/02 10:11:27;;;;;;;1.30;0.38;;;;;;;22.32;54.35;100585.84;5001219;28;20112;-85
2022/09/02 10:13:58;;;;;;;0.52;0.15;;;;;;;22.38;53.23;100583.13;5002451;28;20038;-85
2022/09/02 10:16:41;;;;;;;1.67;0.20;;;;;;;22.51;53.30;100575.06;5004519;28;20038;-87
2022/09/02 10:19:28;;;;;;;3.80;0.30;;;;;;;22.54;53.16;100576.47;4994519;28;20405;-86
2022/09/02 10:22:17;;;;;;;2.17;0.38;;;;;;;22.41;52.66;100571.28;5005725;28;20056;-86
2022/09/02 10:25:01;;;;;;;2.40;0.20;;;;;;;22.43;51.25;100574.53;5007676;28;20040;-86
2022/09/02 10:28:06;;;;;;;0.43;0.20;;;;;;;22.58;49.38;100564.38;5008704;28;20105;-87
2022/09/02 10:30:42;;;;;;;0.70;0.20;;;;;;;22.63;52.58;100561.88;4993968;28;20484;-85
2022/09/02 10:33:28;;;;;;;0.50;0.20;;;;;;;22.58;52.79;100559.06;5007829;28;20034;-86
2022/09/02 10:36:03;;;;;;;3.75;0.28;;;;;;;22.62;52.09;100554.94;5000266;28;20042;-85
2022/09/02 10:38:28;;;;;;;;;;;;;;;22.75;51.47;100556.59;5007060;28;20133;-85
2022/09/02 10:41:05;;;;;;;0.75;0.20;;;;;;;22.81;51.38;100553.91;5013519;28;20011;-85
2022/09/02 10:43:43;;;;;;;2.50;0.20;;;;;;;22.56;50.60;100547.84;4999133;28;20046;-85
2022/09/02 10:46:09;;;;;;;3.03;0.10;;;;;;;22.61;51.21;100553.31;5010325;28;20499;-86
2022/09/02 10:48:44;;;;;;;0.75;0.30;;;;;;;22.83;49.66;100551.03;5022709;28;20026;-86
2022/09/02 10:51:15;;;;;;;4.43;0.25;;;;;;;22.98;49.61;100554.13;5005193;28;20034;-86
2022/09/02 10:53:47;;;;;;;1.48;0.15;;;;;;;23.11;49.39;100550.50;5001369;28;20042;-86
2022/09/02 10:56:22;;;;;;;0.60;0.20;;;;;;;23.21;50.15;100547.25;5005163;28;20109;-85
2022/09/02 10:59:04;;;;;;;5.50;0.22;;;;;;;23.25;50.85;100538.63;5003195;28;20120;-85
2022/09/02 11:01:48;;;;;;;2.55;0.20;;;;;;;23.33;49.79;100545.47;5007366;28;20057;-86
2022/09/02 11:04:50;;;;;;;0.82;0.20;;;;;;;23.42;49.02;100536.94;5006215;28;20120;-87
2022/09/02 11:07:22;;;;;;;0.70;0.20;;;;;;;23.60;49.13;100544.09;5003029;28;20037;-86
2022/09/02 11:10:15;;;;;;;2.58;0.20;;;;;;;23.68;47.41;100540.25;5002582;28;20034;-86
2022/09/02 11:12:48;;;;;;;1.33;0.25;;;;;;;23.87;47.77;100536.47;5021420;28;20041;-86
2022/09/02 11:15:24;;;;;;;0.40;0.10;;;;;;;23.65;49.25;100530.06;5005264;28;20045;-86
2022/09/02 11:18:11;;;;;;;0.60;0.20;;;;;;;23.46;49.07;100530.16;5004264;28;20030;-86
2022/09/02 11:20:41;;;;;;;0.40;0.15;;;;;;;23.45;49.96;100523.22;5004344;28;20481;-86
2022/09/02 11:23:20;;;;;;;1.30;0.20;;;;;;;23.48;50.38;100521.94;5005167;28;20417;-86
2022/09/02 11:25:49;;;;;;;0.63;0.20;;;;;;;23.56;48.98;100528.81;5003082;28;20044;-86
2022/09/02 11:28:47;;;;;;;0.30;0.20;;;;;;;23.59;48.92;100539.00;5003330;28;20042;-87
2022/09/02 11:31:23;;;;;;;1.58;0.17;;;;;;;23.64;49.65;100542.56;5003921;28;20038;-87
2022/09/02 11:33:57;;;;;;;0.98;0.20;;;;;;;23.62;49.46;100543.88;5001707;28;20088;-86
2022/09/02 11:36:25;;;;;;;0.70;0.20;;;;;;;23.62;48.95;100539.34;5003348;28;20040;-87
2022/09/02 11:38:57;;;;;;;0.43;0.20;;;;;;;23.61;49.12;100540.38;4995837;28;20149;-88
2022/09/02 11:41:29;;;;;;;0.55;0.20;;;;;;;23.72;48.37;100538.75;4999758;28;20038;-86
2022/09/02 11:44:21;;;;;;;1.73;0.15;;;;;;;23.72;48.24;100528.94;5003751;28;20462;-86